• Join FlightAware (Why Join?)
  • Login
  • US Flag 
12:10PM EDT


 

Airport Tracker/Info


-or-


 

Live Flight TrackerFlight Track Log ✈ EJA831 ✈ 07-Aug-2013 ✈ KSNA - KASE

Flight Track Log - Related Links

Times and Time Zones

All times are in EDT time to prevent confusion due to time zone crossing. See the EJA831 flight status page for this flight to view local times or setup timezone preferences in your user account.

Time Position Orientation Groundspeed Altitude Reporting Facility
EDT Latitude Longitude Course Direction KTS MPH feet Rate Location/Type
02:01PM 33.6278 -117.8947 90° East 208 239 2,800  Level Los Angeles Center
02:02PM 33.5644 -117.9042 187° South 231 266 5,800 2,700 Climbing Los Angeles Center
02:03PM 33.5194 -117.9472 219° Southwest 230 265 8,500 2,640 Climbing Los Angeles Center
02:05PM 33.6378 -118.0636 321° Northwest 307 353 14,100 2,640 Climbing Los Angeles Center
02:06PM 33.8667 -117.9542 90° East  Level FlightAware Approximate
02:06PM 33.7278 -118.0578 North 326 375 16,700  Level Los Angeles Center
02:07PM 33.8147 -118.0253 17° North 344 396 18,900 2,220 Climbing Los Angeles Center
02:08PM 33.8939 -117.9556 36° Northeast 353 406 21,300 1,920 Climbing Los Angeles Center
02:09PM 33.9933 -117.8644 37° Northeast 369 425 23,000 1,200 Climbing Los Angeles Center
02:10PM 34.0858 -117.7783 38° Northeast 409 471 23,900 480 Climbing Los Angeles Center
02:11PM 34.1647 -117.6722 48° Northeast 422 486 24,000  Climbing Los Angeles Center
02:12PM 34.2433 -117.5647 48° Northeast 427 491 24,000  Level Los Angeles Center
02:13PM 34.3214 -117.4594 48° Northeast 423 487 24,000  Level Los Angeles Center
02:14PM 34.4039 -117.3458 49° Northeast 430 495 24,000 720 Level Los Angeles Center
02:15PM 34.4817 -117.2406 48° Northeast 424 488 25,600 1,980 Climbing Los Angeles Center
02:16PM 34.5697 -117.1178 49° Northeast 407 468 28,100 2,100 Climbing Los Angeles Center
02:17PM 34.6433 -117.0183 48° Northeast 399 459 30,000 1,860 Climbing Los Angeles Center
02:18PM 34.7147 -116.9192 49° Northeast 393 452 32,000 1,920 Climbing Los Angeles Center
02:19PM 34.7836 -116.8233 49° Northeast 380 437 34,000 1,500 Climbing Los Angeles Center
02:20PM 34.8528 -116.7269 49° Northeast 380 437 35,200 1,200 Climbing Los Angeles Center
02:21PM 34.9378 -116.6100 48° Northeast 386 444 36,600 1,140 Climbing Los Angeles Center
02:22PM 35.0142 -116.5114 47° Northeast 397 457 37,600 960 Climbing Los Angeles Center
02:23PM 35.0911 -116.4144 46° Northeast 398 458 38,600 960 Climbing Los Angeles Center
02:24PM 35.1694 -116.3158 46° Northeast 404 465 39,600 960 Climbing Los Angeles Center
02:25PM 35.2472 -116.2197 45° Northeast 400 460 40,600 660 Climbing Los Angeles Center
02:26PM 35.3397 -116.1006 46° Northeast 404 465 41,000 180 Climbing Los Angeles Center
02:27PM 35.4217 -115.9975 46° Northeast 421 484 41,000  Level Los Angeles Center
02:28PM 35.5056 -115.8906 46° Northeast 433 498 41,000  Level Los Angeles Center
02:30PM 35.5750 -115.7450 60° Northeast 435 501 41,000  Level Los Angeles Center
02:31PM 35.6367 -115.6136 60° Northeast 444 511 41,000  Level Los Angeles Center
02:32PM 35.7000 -115.4819 59° Northeast 449 517 41,000  Level Los Angeles Center
02:33PM 35.7619 -115.3500 60° Northeast 448 516 41,000  Level Los Angeles Center
02:34PM 35.8239 -115.2175 60° Northeast 448 516 41,000  Level Los Angeles Center
02:35PM 35.8953 -115.0583 61° Northeast 446 513 41,000  Level Los Angeles Center
02:36PM 35.9575 -114.9242 60° Northeast 450 518 41,000  Level Los Angeles Center
02:37PM 36.0208 -114.7894 60° Northeast 454 522 41,000  Level Los Angeles Center
02:38PM 36.0833 -114.6539 60° Northeast 456 525 41,000  Level Los Angeles Center
02:39PM 36.1450 -114.5169 61° Northeast 457 526 41,000  Level Los Angeles Center
02:40PM 36.2203 -114.3525 60° Northeast 459 528 41,000  Level Los Angeles Center
02:41PM 36.2836 -114.2153 60° Northeast 460 529 41,000  Level Los Angeles Center
02:42PM 36.3458 -114.0767 61° Northeast 461 531 41,000 -60 Level Los Angeles Center
02:43PM 36.4086 -113.9378 61° Northeast 461 531 40,900 -600 Descending Los Angeles Center
02:44PM 36.4731 -113.7972 60° Northeast 468 539 39,800 -1,080 Descending Los Angeles Center
02:45PM 36.5358 -113.6531 62° Northeast 463 533 38,700 -1,080 Descending Los Angeles Center
02:46PM 36.5967 -113.5175 61° Northeast 455 524 37,600 -1,260 Descending Los Angeles Center
02:47PM 36.6700 -113.3542 61° Northeast 452 520 36,100 -1,260 Descending Los Angeles Center
02:48PM 36.7294 -113.2183 61° Northeast 450 518 35,000 -540 Descending Los Angeles Center
02:49PM 36.7869 -113.0856 62° Northeast 440 506 35,000  Level Los Angeles Center
02:50PM 36.8461 -112.9508 61° Northeast 445 512 35,000  Level Los Angeles Center
02:51PM 36.9061 -112.8133 61° Northeast 451 519 35,000  Level Los Angeles Center
02:52PM 36.9772 -112.6486 62° Northeast 452 520 35,000  Level Los Angeles Center
02:53PM 37.0358 -112.5133 61° Northeast 449 517 35,000  Level Los Angeles Center
02:54PM 37.0944 -112.3783 61° Northeast 446 513 35,000  Level Los Angeles Center
02:55PM 37.1533 -112.2414 62° Northeast 449 517 35,000  Level Los Angeles Center
02:56PM 37.2125 -112.1036 62° Northeast 451 519 35,000  Level Los Angeles Center
02:57PM 37.2819 -111.9397 62° Northeast 449 517 35,000  Level Los Angeles Center
02:59PM 37.3400 -111.8022 62° Northeast 449 517 35,000  Level Los Angeles Center
03:00PM 37.3964 -111.6672 62° Northeast 441 507 35,000  Level Los Angeles Center
03:01PM 37.4531 -111.5325 62° Northeast 438 504 35,000  Level Los Angeles Center
03:02PM 37.5089 -111.3986 62° Northeast 435 501 35,000  Level Los Angeles Center
03:03PM 37.5858 -111.2114 63° Northeast 433 498 35,000  Level Denver Center
03:04PM 37.6422 -111.0775 62° Northeast 433 498 35,000  Level Denver Center
03:05PM 37.6844 -110.9706 63° Northeast 429 494 35,000  Level Denver Center
03:06PM 37.7606 -110.7839 63° Northeast 429 494 35,000  Level Denver Center
03:07PM 37.8156 -110.6492 63° Northeast 431 496 35,000  Level Denver Center
03:08PM 37.8708 -110.5131 63° Northeast 432 497 35,000  Level Denver Center
03:09PM 37.9236 -110.3817 63° Northeast 436 502 35,000  Level Denver Center
03:10PM 37.9953 -110.2056 63° Northeast 440 506 35,000  Level Denver Center
03:11PM 38.0528 -110.0575 64° Northeast 441 507 35,000  Level Denver Center
03:12PM 38.1061 -109.9258 63° Northeast 440 506 35,000  Level Denver Center
03:14PM 38.1686 -109.7689 63° Northeast 445 512 35,000  Level Denver Center
03:15PM 38.2208 -109.6342 64° Northeast 444 511 35,000  Level Denver Center
03:16PM 38.2819 -109.4761 64° Northeast 446 513 35,000  Level Denver Center
03:17PM 38.3356 -109.3414 63° Northeast 446 513 35,000  Level Denver Center
03:18PM 38.3961 -109.1808 64° Northeast 451 519 35,000  Level Denver Center
03:19PM 38.4494 -109.0461 63° Northeast 449 517 35,000  Level Denver Center
03:20PM 38.5106 -108.8883 64° Northeast 446 513 35,000  Level Denver Center
03:21PM 38.5625 -108.7508 64° Northeast 449 517 35,000  Level Denver Center
03:22PM 38.6231 -108.5922 64° Northeast 447 514 35,000  Level Denver Center
03:23PM 38.6747 -108.4553 64° Northeast 448 516 35,000  Level Denver Center
03:24PM 38.7342 -108.2956 64° Northeast 447 514 35,000 -600 Level Denver Center
03:25PM 38.7961 -108.1650 59° Northeast 449 517 33,800 -1,440 Descending Denver Center
03:26PM 38.8789 -108.0250 53° Northeast 442 509 32,100 -1,560 Descending Denver Center
03:27PM 38.9475 -107.9000 55° Northeast 449 517 30,600 -1,560 Descending Denver Center
03:28PM 39.0275 -107.7528 55° Northeast 450 518 28,900 -1,680 Descending Denver Center
03:29PM 39.0892 -107.6283 57° Northeast 439 505 27,200 -1,920 Descending Denver Center
03:30PM 39.1592 -107.4811 58° Northeast 433 498 25,000 -2,040 Descending Denver Center
03:31PM 39.2164 -107.3633 58° Northeast 411 473 23,000 -2,040 Descending Denver Center
03:32PM 39.2803 -107.2292 58° Northeast 392 451 20,800 -1,620 Descending Denver Center
03:33PM 39.3378 -107.1239 55° Northeast 374 430 19,700 -1,440 Descending Denver Center
03:34PM 39.4358 -107.1342 355° North 335 386 17,800 -1,680 Descending Denver Center
03:35PM 39.5017 -107.1258 North 283 326 16,300 -1,020 Descending Denver Center
03:36PM 39.4706 -107.0381 115° Southeast 258 297 15,700 -1,020 Descending Denver Center
03:37PM 39.4297 -106.9858 135° Southeast 248 285 14,300 -1,500 Descending Denver Center
03:38PM 39.3769 -106.9442 149° Southeast 193 222 12,700 -1,200 Descending Denver Center
03:39PM 39.3342 -106.9219 158° South 173 199 11,900 -1,500 Descending Denver Center
03:40PM 39.2917 -106.9039 162° South 166 191 9,600 -1,800 Descending Denver Center
03:41PM 39.2511 -106.8831 158° South 157 181 8,200 -1,380 Descending Denver Center